Time;durP1;ratioP1;P1;durP2;ratioP2;P2;SDS_P1;SDS_P2;PMS_P1;PMS_P2;Temp;Humidity;BMP_temperature;BMP_pressure;BME280_temperature;BME280_humidity;BME280_pressure;Samples;Min_cycle;Max_cycle;Signal;HPM_P1;HPM_P2
2021/08/24 00:00:14;;;;;;;6.88;5.63;;;;;;;;;;4953600;28;20695;-82
2021/08/24 00:02:41;;;;;;;8.50;6.30;;;;;;;;;;4966412;28;20445;-83
2021/08/24 00:05:07;;;;;;;6.05;4.85;;;;;;;;;;4959268;28;20027;-82
2021/08/24 00:07:32;;;;;;;8.32;5.80;;;;;;;;;;4954680;28;20505;-81
2021/08/24 00:09:57;;;;;;;8.40;5.23;;;;;;;;;;4953827;28;20238;-82
2021/08/24 00:12:22;;;;;;;7.65;6.00;;;;;;;;;;4936346;28;20281;-83
2021/08/24 00:14:48;;;;;;;8.63;6.80;;;;;;;;;;4953993;28;20098;-84
2021/08/24 00:17:13;;;;;;;6.73;5.17;;;;;;;;;;4954463;28;20270;-84
2021/08/24 00:19:38;;;;;;;8.60;5.95;;;;;;;;;;4936369;29;20294;-84
2021/08/24 00:22:04;;;;;;;9.60;6.47;;;;;;;;;;4953485;28;20030;-83
2021/08/24 00:24:29;;;;;;;8.30;6.03;;;;;;;;;;4958890;28;20027;-83
2021/08/24 00:26:54;;;;;;;8.70;4.93;;;;;;;;;;4954617;28;20338;-81
2021/08/24 00:29:19;;;;;;;14.70;5.18;;;;;;;;;;4954666;28;20029;-83
2021/08/24 00:31:45;;;;;;;5.73;4.60;;;;;;;;;;4952734;28;20099;-83
2021/08/24 00:34:10;;;;;;;9.95;5.32;;;;;;;;;;4955450;28;20030;-83
2021/08/24 00:36:35;;;;;;;11.27;5.35;;;;;;;;;;4953115;28;20655;-82
2021/08/24 00:39:01;;;;;;;11.68;5.13;;;;;;;;;;4952645;28;20038;-82
2021/08/24 00:41:26;;;;;;;7.70;5.83;;;;;;;;;;4958443;28;20058;-83
2021/08/24 00:43:52;;;;;;;7.65;5.80;;;;;;;;;;4958760;28;20310;-82
2021/08/24 00:46:34;;;;;;;6.85;5.13;;;;;;;;;;4959049;28;20031;-81
2021/08/24 00:49:10;;;;;;;8.30;6.63;;;;;;;;;;4955340;28;20055;-83
2021/08/24 00:51:36;;;;;;;6.80;5.38;;;;;;;;;;4958205;28;20381;-83
2021/08/24 00:54:02;;;;;;;6.95;5.03;;;;;;;;;;4958501;28;20050;-81
2021/08/24 00:56:29;;;;;;;9.02;5.85;;;;;;;;;;4962068;28;20027;-83
2021/08/24 00:58:55;;;;;;;8.20;4.80;;;;;;;;;;4952857;28;20475;-83
2021/08/24 01:01:21;;;;;;;9.73;6.20;;;;;;;;;;4958313;28;20664;-83
2021/08/24 01:03:47;;;;;;;10.70;5.63;;;;;;;;;;4963457;28;20031;-83
2021/08/24 01:06:32;;;;;;;8.05;4.90;;;;;;;;;;4959724;28;20309;-83
2021/08/24 01:09:16;;;;;;;8.05;5.18;;;;;;;;;;4988378;28;20349;-82
2021/08/24 01:12:01;;;;;;;11.63;6.10;;;;;;;;;;4952035;28;20085;-82
2021/08/24 01:14:35;;;;;;;7.43;5.45;;;;;;;;;;4983529;28;20071;-83
2021/08/24 01:17:13;;;;;;;13.23;6.80;;;;;;;;;;4953903;28;20611;-82
2021/08/24 01:19:57;;;;;;;10.00;5.60;;;;;;;;;;4984065;28;20715;-83
2021/08/24 01:22:31;;;;;;;7.57;6.15;;;;;;;;;;4954333;28;20382;-83
2021/08/24 01:25:02;;;;;;;14.07;6.78;;;;;;;;;;4952792;28;20386;-83
2021/08/24 01:27:32;;;;;;;9.25;5.63;;;;;;;;;;4952154;28;20389;-83
2021/08/24 01:30:00;;;;;;;7.72;4.90;;;;;;;;;;4957835;28;20460;-83
2021/08/24 01:32:46;;;;;;;5.95;4.15;;;;;;;;;;4963810;28;20312;-84
2021/08/24 01:35:23;;;;;;;9.23;5.15;;;;;;;;;;4952943;28;20378;-85
2021/08/24 01:37:57;;;;;;;12.10;5.55;;;;;;;;;;4951905;28;20035;-83
2021/08/24 01:40:31;;;;;;;10.10;5.22;;;;;;;;;;4944566;28;20567;-83
2021/08/24 01:42:57;;;;;;;9.25;5.40;;;;;;;;;;4962464;28;20398;-84
2021/08/24 01:45:26;;;;;;;8.88;4.78;;;;;;;;;;4956549;28;20407;-83
2021/08/24 01:47:53;;;;;;;7.00;4.72;;;;;;;;;;4964184;28;20058;-83
2021/08/24 01:50:25;;;;;;;10.40;4.40;;;;;;;;;;4957553;28;20029;-83
2021/08/24 01:52:53;;;;;;;8.82;5.65;;;;;;;;;;4956731;28;20550;-83
2021/08/24 01:55:27;;;;;;;9.40;4.93;;;;;;;;;;5002156;28;20029;-82
2021/08/24 01:57:58;;;;;;;9.18;4.97;;;;;;;;;;4964104;28;20376;-83
2021/08/24 02:00:24;;;;;;;6.72;4.80;;;;;;;;;;4955244;28;20377;-84
2021/08/24 02:03:01;;;;;;;10.52;5.05;;;;;;;;;;4992984;28;20033;-83
2021/08/24 02:05:40;;;;;;;8.50;4.10;;;;;;;;;;4962440;28;20057;-81
2021/08/24 02:08:08;;;;;;;8.23;4.65;;;;;;;;;;4951730;28;20023;-82
2021/08/24 02:10:34;;;;;;;7.55;4.25;;;;;;;;;;4964302;28;20429;-83
2021/08/24 02:13:00;;;;;;;9.05;4.88;;;;;;;;;;4964115;28;20469;-83
2021/08/24 02:15:31;;;;;;;6.53;4.00;;;;;;;;;;4968709;28;21928;-83
2021/08/24 02:17:58;;;;;;;8.02;5.00;;;;;;;;;;4955306;28;20474;-83
2021/08/24 02:20:25;;;;;;;6.68;4.35;;;;;;;;;;4952150;28;20089;-82
2021/08/24 02:22:53;;;;;;;7.20;4.30;;;;;;;;;;4958350;28;20051;-83
2021/08/24 02:25:22;;;;;;;8.57;4.30;;;;;;;;;;4948704;28;20426;-83
2021/08/24 02:27:58;;;;;;;8.73;4.70;;;;;;;;;;4958207;28;20421;-85
2021/08/24 02:30:24;;;;;;;5.55;4.15;;;;;;;;;;4959905;28;20023;-86
2021/08/24 02:32:50;;;;;;;9.15;4.95;;;;;;;;;;4952071;28;20478;-84
2021/08/24 02:35:24;;;;;;;10.13;4.80;;;;;;;;;;4951644;28;20377;-84
2021/08/24 02:37:52;;;;;;;8.50;4.22;;;;;;;;;;4951676;28;20023;-83
2021/08/24 02:40:31;;;;;;;8.52;4.07;;;;;;;;;;4951643;28;20622;-84
2021/08/24 02:43:07;;;;;;;10.93;4.00;;;;;;;;;;4958974;28;20074;-83
2021/08/24 02:45:35;;;;;;;10.45;5.03;;;;;;;;;;4953048;28;20442;-84
2021/08/24 02:48:01;;;;;;;6.93;4.38;;;;;;;;;;4950614;28;20368;-83
2021/08/24 02:50:26;;;;;;;6.85;4.45;;;;;;;;;;4950160;28;20028;-84
2021/08/24 02:52:53;;;;;;;7.85;4.03;;;;;;;;;;4951505;28;20047;-83
2021/08/24 02:55:18;;;;;;;5.88;4.00;;;;;;;;;;4957176;28;20038;-83
2021/08/24 02:57:43;;;;;;;7.45;4.20;;;;;;;;;;4973519;28;20734;-82
2021/08/24 03:00:09;;;;;;;6.80;4.17;;;;;;;;;;4967987;28;20022;-83
2021/08/24 03:02:34;;;;;;;6.53;4.97;;;;;;;;;;4955044;28;20629;-83
2021/08/24 03:04:59;;;;;;;5.77;4.37;;;;;;;;;;4960034;28;20026;-82
2021/08/24 03:07:28;;;;;;;8.52;4.70;;;;;;;;;;4959587;28;20279;-83
2021/08/24 03:10:00;;;;;;;8.52;4.82;;;;;;;;;;4954885;28;20019;-83
2021/08/24 03:12:33;;;;;;;7.28;3.75;;;;;;;;;;4937816;28;20611;-82
2021/08/24 03:15:20;;;;;;;9.32;4.97;;;;;;;;;;4956685;28;20054;-82
2021/08/24 03:17:48;;;;;;;11.38;5.80;;;;;;;;;;4953871;28;20381;-82
2021/08/24 03:20:15;;;;;;;5.50;3.95;;;;;;;;;;4979241;28;20027;-82
2021/08/24 03:22:41;;;;;;;7.00;4.93;;;;;;;;;;4962257;28;20031;-82
2021/08/24 03:25:08;;;;;;;9.55;4.55;;;;;;;;;;4966496;28;20505;-82
2021/08/24 03:27:34;;;;;;;7.10;4.75;;;;;;;;;;4963867;28;20023;-83
2021/08/24 03:30:01;;;;;;;8.90;4.88;;;;;;;;;;4953706;28;20355;-83
2021/08/24 03:32:27;;;;;;;9.98;3.85;;;;;;;;;;4955058;28;20180;-82
2021/08/24 03:34:52;;;;;;;8.75;5.13;;;;;;;;;;4954994;28;20184;-83
2021/08/24 03:37:17;;;;;;;7.68;4.07;;;;;;;;;;4965821;28;20062;-83
2021/08/24 03:39:43;;;;;;;7.72;4.60;;;;;;;;;;4964147;28;20309;-83
2021/08/24 03:42:08;;;;;;;7.03;4.30;;;;;;;;;;4967055;28;20062;-83
2021/08/24 03:44:33;;;;;;;10.17;3.87;;;;;;;;;;4954358;28;20031;-84
2021/08/24 03:46:59;;;;;;;6.78;4.20;;;;;;;;;;4962543;28;20023;-84
2021/08/24 03:49:24;;;;;;;8.77;4.60;;;;;;;;;;4956726;28;20027;-82
2021/08/24 03:51:49;;;;;;;5.83;4.00;;;;;;;;;;4955035;28;20135;-82
2021/08/24 03:54:14;;;;;;;6.20;3.53;;;;;;;;;;4954607;28;20773;-83
2021/08/24 03:56:41;;;;;;;8.70;5.10;;;;;;;;;;4961847;28;20330;-83
2021/08/24 03:59:06;;;;;;;6.47;3.95;;;;;;;;;;4955635;28;20093;-83
2021/08/24 04:01:31;;;;;;;7.43;4.57;;;;;;;;;;4953673;28;20015;-83
2021/08/24 04:03:57;;;;;;;7.60;4.05;;;;;;;;;;4953872;28;20744;-83
2021/08/24 04:06:23;;;;;;;5.55;4.10;;;;;;;;;;4936361;28;20027;-84
2021/08/24 04:08:48;;;;;;;8.00;4.97;;;;;;;;;;4958702;28;20469;-83
2021/08/24 04:11:13;;;;;;;7.07;4.40;;;;;;;;;;4959919;28;20263;-84
2021/08/24 04:13:38;;;;;;;8.02;4.50;;;;;;;;;;4954561;28;20275;-83
2021/08/24 04:16:05;;;;;;;6.68;3.83;;;;;;;;;;4953867;28;20450;-83
2021/08/24 04:18:30;;;;;;;5.22;3.88;;;;;;;;;;4955907;28;20027;-83
2021/08/24 04:20:55;;;;;;;8.52;4.43;;;;;;;;;;4957447;28;20058;-83
2021/08/24 04:23:23;;;;;;;7.05;4.88;;;;;;;;;;4962024;28;20027;-83
2021/08/24 04:25:48;;;;;;;9.57;4.70;;;;;;;;;;4962539;28;20023;-82
2021/08/24 04:28:13;;;;;;;6.47;4.53;;;;;;;;;;4958150;28;20107;-83
2021/08/24 04:30:39;;;;;;;7.70;4.63;;;;;;;;;;4937756;28;20042;-82
2021/08/24 04:33:04;;;;;;;9.07;4.47;;;;;;;;;;4967923;28;20945;-82
2021/08/24 04:35:29;;;;;;;10.37;4.53;;;;;;;;;;4943417;28;20139;-83
2021/08/24 04:37:54;;;;;;;10.33;5.30;;;;;;;;;;4955471;28;20270;-83
2021/08/24 04:40:19;;;;;;;10.07;5.57;;;;;;;;;;4956837;28;20278;-83
2021/08/24 04:42:45;;;;;;;7.53;5.33;;;;;;;;;;4958361;28;20298;-81
2021/08/24 04:45:11;;;;;;;6.95;4.90;;;;;;;;;;4953010;28;20267;-81
2021/08/24 04:47:36;;;;;;;10.20;4.88;;;;;;;;;;4953147;28;20999;-81
2021/08/24 04:50:03;;;;;;;8.40;4.00;;;;;;;;;;4953423;28;20078;-82
2021/08/24 04:52:28;;;;;;;6.28;4.32;;;;;;;;;;4953123;28;20626;-81
2021/08/24 04:54:53;;;;;;;8.50;4.73;;;;;;;;;;4953965;28;20024;-82
2021/08/24 04:57:18;;;;;;;9.93;5.10;;;;;;;;;;4952755;28;20277;-83
2021/08/24 04:59:44;;;;;;;10.90;4.95;;;;;;;;;;4935007;28;20330;-82
2021/08/24 05:02:09;;;;;;;7.60;5.18;;;;;;;;;;4961940;28;20027;-81
2021/08/24 05:04:35;;;;;;;9.80;5.05;;;;;;;;;;4953279;28;20027;-80
2021/08/24 05:07:01;;;;;;;10.15;4.68;;;;;;;;;;4935605;29;20034;-80
2021/08/24 05:09:26;;;;;;;6.40;4.55;;;;;;;;;;4952768;28;20340;-81
2021/08/24 05:11:52;;;;;;;7.13;4.40;;;;;;;;;;4967056;28;20101;-83
2021/08/24 05:14:17;;;;;;;8.93;4.40;;;;;;;;;;4968353;28;20027;-82
2021/08/24 05:16:42;;;;;;;9.52;4.80;;;;;;;;;;4951987;28;20398;-81
2021/08/24 05:19:08;;;;;;;8.00;3.70;;;;;;;;;;4957397;28;20030;-83
2021/08/24 05:21:34;;;;;;;8.70;4.90;;;;;;;;;;4960672;28;20482;-92
2021/08/24 05:23:59;;;;;;;7.35;4.85;;;;;;;;;;4965430;28;20416;-82
2021/08/24 05:26:25;;;;;;;7.68;4.82;;;;;;;;;;4952789;28;20126;-83
2021/08/24 05:28:50;;;;;;;8.73;4.80;;;;;;;;;;4954844;28;20054;-81
2021/08/24 05:31:15;;;;;;;5.70;4.27;;;;;;;;;;4935412;28;20474;-81
2021/08/24 05:33:41;;;;;;;6.70;4.88;;;;;;;;;;4953500;28;20271;-81
2021/08/24 05:36:06;;;;;;;7.43;4.82;;;;;;;;;;4961036;28;20467;-83
2021/08/24 05:38:33;;;;;;;9.83;5.13;;;;;;;;;;4959506;28;20188;-82
2021/08/24 05:40:58;;;;;;;5.78;3.53;;;;;;;;;;4948646;28;20390;-81
2021/08/24 05:43:24;;;;;;;6.47;4.47;;;;;;;;;;4952394;29;20114;-81
2021/08/24 05:45:53;;;;;;;5.57;4.13;;;;;;;;;;4954385;28;20493;-81
2021/08/24 05:48:18;;;;;;;6.15;4.72;;;;;;;;;;4961222;28;20507;-81
2021/08/24 05:50:44;;;;;;;9.82;4.78;;;;;;;;;;4952427;28;20039;-83
2021/08/24 05:53:09;;;;;;;8.43;4.27;;;;;;;;;;4956767;28;20388;-82
2021/08/24 05:55:34;;;;;;;8.90;4.80;;;;;;;;;;4951527;28;20946;-83
2021/08/24 05:57:59;;;;;;;7.80;5.40;;;;;;;;;;4957866;28;20031;-82
2021/08/24 06:00:25;;;;;;;8.60;4.70;;;;;;;;;;4952204;28;20710;-82
2021/08/24 06:02:50;;;;;;;6.93;4.73;;;;;;;;;;4935891;28;20828;-83
2021/08/24 06:05:15;;;;;;;9.48;4.82;;;;;;;;;;4958258;28;20819;-83
2021/08/24 06:07:41;;;;;;;10.88;5.85;;;;;;;;;;4952711;28;20023;-83
2021/08/24 06:10:07;;;;;;;9.98;5.63;;;;;;;;;;4952790;28;20464;-81
2021/08/24 06:12:33;;;;;;;11.43;5.35;;;;;;;;;;4953636;28;20018;-83
2021/08/24 06:14:58;;;;;;;9.52;5.55;;;;;;;;;;4955073;28;20469;-80
2021/08/24 06:17:25;;;;;;;8.52;4.95;;;;;;;;;;4964321;28;20042;-84
2021/08/24 06:19:50;;;;;;;7.28;4.78;;;;;;;;;;4952988;28;20106;-82
2021/08/24 06:22:15;;;;;;;8.23;4.60;;;;;;;;;;4957784;28;20106;-83
2021/08/24 06:24:41;;;;;;;8.30;4.60;;;;;;;;;;4952013;28;20574;-81
2021/08/24 06:27:06;;;;;;;6.97;4.87;;;;;;;;;;4954201;28;20792;-79
2021/08/24 06:29:32;;;;;;;7.05;4.78;;;;;;;;;;4953277;28;20306;-80
2021/08/24 06:32:00;;;;;;;9.13;5.97;;;;;;;;;;4951989;28;20034;-85
2021/08/24 06:34:25;;;;;;;14.93;8.20;;;;;;;;;;4952095;28;20619;-83
2021/08/24 06:36:51;;;;;;;13.93;10.95;;;;;;;;;;4957879;28;20038;-81
2021/08/24 06:39:16;;;;;;;15.55;6.95;;;;;;;;;;4951773;28;20031;-80
2021/08/24 06:41:42;;;;;;;13.27;5.38;;;;;;;;;;4958681;28;20078;-81
2021/08/24 06:44:08;;;;;;;9.55;6.20;;;;;;;;;;4962428;28;20085;-82
2021/08/24 06:46:34;;;;;;;9.30;5.55;;;;;;;;;;4957866;28;20038;-81
2021/08/24 06:48:59;;;;;;;9.32;5.95;;;;;;;;;;4967899;28;20377;-80
2021/08/24 06:51:25;;;;;;;7.90;5.38;;;;;;;;;;4952441;28;20422;-83
2021/08/24 06:53:50;;;;;;;9.50;4.90;;;;;;;;;;4951680;28;20062;-79
2021/08/24 06:56:16;;;;;;;8.88;4.80;;;;;;;;;;4956686;28;20018;-82
2021/08/24 06:58:42;;;;;;;8.35;4.57;;;;;;;;;;4962332;28;20054;-83
2021/08/24 07:01:12;;;;;;;8.25;4.88;;;;;;;;;;4959863;28;20526;-84
2021/08/24 07:03:37;;;;;;;7.35;5.15;;;;;;;;;;4954710;28;20027;-80
2021/08/24 07:06:03;;;;;;;8.48;4.70;;;;;;;;;;4951838;28;20029;-81
2021/08/24 07:08:28;;;;;;;11.00;5.25;;;;;;;;;;4951385;28;20031;-80
2021/08/24 07:10:53;;;;;;;11.15;7.13;;;;;;;;;;4964465;28;20413;-80
2021/08/24 07:13:19;;;;;;;15.75;10.35;;;;;;;;;;4950644;28;20019;-89
2021/08/24 07:15:45;;;;;;;8.80;5.03;;;;;;;;;;4954637;28;20015;-91
2021/08/24 07:18:11;;;;;;;9.38;4.60;;;;;;;;;;4950407;28;20024;-87
2021/08/24 07:20:36;;;;;;;8.38;4.70;;;;;;;;;;4952620;28;20035;-83
2021/08/24 07:23:02;;;;;;;8.68;4.45;;;;;;;;;;4960341;28;20054;-90
2021/08/24 07:25:30;;;;;;;6.57;3.78;;;;;;;;;;4947599;28;20107;-88
2021/08/24 07:27:56;;;;;;;6.60;4.32;;;;;;;;;;4964833;28;20114;-86
2021/08/24 07:30:21;;;;;;;7.40;4.25;;;;;;;;;;4961687;28;20042;-87
2021/08/24 07:32:47;;;;;;;10.93;3.90;;;;;;;;;;4955697;28;20055;-86
2021/08/24 07:35:13;;;;;;;6.65;4.60;;;;;;;;;;4956356;28;20082;-85
2021/08/24 07:37:38;;;;;;;9.57;4.25;;;;;;;;;;4952282;28;20381;-85
2021/08/24 07:40:08;;;;;;;5.88;4.30;;;;;;;;;;4956557;28;20023;-81
2021/08/24 07:42:33;;;;;;;7.80;4.68;;;;;;;;;;4953345;28;20047;-82
2021/08/24 07:44:58;;;;;;;6.78;4.70;;;;;;;;;;4972985;28;20049;-81
2021/08/24 07:47:24;;;;;;;7.50;4.53;;;;;;;;;;4971926;28;20041;-81
2021/08/24 07:49:51;;;;;;;5.63;4.15;;;;;;;;;;4973215;28;20019;-82
2021/08/24 07:52:17;;;;;;;7.18;4.22;;;;;;;;;;4973354;28;20381;-83
2021/08/24 07:54:42;;;;;;;13.30;4.05;;;;;;;;;;4971909;28;20019;-83
2021/08/24 07:57:07;;;;;;;7.25;4.25;;;;;;;;;;4973681;28;20022;-84
2021/08/24 07:59:33;;;;;;;8.70;4.10;;;;;;;;;;4973105;28;20026;-83
2021/08/24 08:02:01;;;;;;;5.43;3.73;;;;;;;;;;4973448;28;20037;-83
2021/08/24 08:04:27;;;;;;;11.23;4.55;;;;;;;;;;4973685;28;20034;-82
2021/08/24 08:06:53;;;;;;;9.43;3.78;;;;;;;;;;4954734;28;20582;-84
2021/08/24 08:09:20;;;;;;;6.93;4.47;;;;;;;;;;4955800;28;20023;-83
2021/08/24 08:11:46;;;;;;;8.23;4.07;;;;;;;;;;4973561;28;20054;-82
2021/08/24 08:14:12;;;;;;;8.80;4.45;;;;;;;;;;4973162;28;20053;-83
2021/08/24 08:16:38;;;;;;;12.10;5.13;;;;;;;;;;4973338;28;20111;-83
2021/08/24 08:19:03;;;;;;;13.48;7.80;;;;;;;;;;4955833;28;20058;-83
2021/08/24 08:21:29;;;;;;;8.15;4.68;;;;;;;;;;4972513;28;20074;-83
2021/08/24 08:23:55;;;;;;;5.35;3.80;;;;;;;;;;4972796;28;20350;-84
2021/08/24 08:26:20;;;;;;;8.65;4.35;;;;;;;;;;4974484;28;20042;-85
2021/08/24 08:28:48;;;;;;;6.68;3.75;;;;;;;;;;4957088;28;20085;-87
2021/08/24 08:31:15;;;;;;;7.60;3.67;;;;;;;;;;4973652;28;20023;-85
2021/08/24 08:33:41;;;;;;;6.70;3.97;;;;;;;;;;4972684;28;20089;-80
2021/08/24 08:36:07;;;;;;;7.50;4.22;;;;;;;;;;4972119;28;20025;-79
2021/08/24 08:38:33;;;;;;;9.25;4.32;;;;;;;;;;4970790;28;20042;-78
2021/08/24 08:40:59;;;;;;;8.70;3.90;;;;;;;;;;4972068;28;20030;-78
2021/08/24 08:43:43;;;;;;;5.30;3.47;;;;;;;;;;4953730;28;20417;-78
2021/08/24 08:46:13;;;;;;;8.63;4.22;;;;;;;;;;4953419;28;20023;-80
2021/08/24 08:48:44;;;;;;;10.18;5.38;;;;;;;;;;4963139;28;20043;-79
2021/08/24 08:51:19;;;;;;;7.25;4.53;;;;;;;;;;4954069;28;20738;-78
2021/08/24 08:53:53;;;;;;;11.80;5.10;;;;;;;;;;4964784;28;20045;-80
2021/08/24 08:56:33;;;;;;;5.85;3.50;;;;;;;;;;4952171;28;20023;-82
2021/08/24 08:59:11;;;;;;;9.15;4.32;;;;;;;;;;4949722;28;20501;-82
2021/08/24 09:01:46;;;;;;;7.25;4.18;;;;;;;;;;4958152;28;20038;-80
2021/08/24 09:04:15;;;;;;;5.57;3.90;;;;;;;;;;4953484;28;20019;-81
2021/08/24 09:06:41;;;;;;;8.02;3.80;;;;;;;;;;4953620;28;20070;-78
2021/08/24 09:09:08;;;;;;;5.28;3.53;;;;;;;;;;4953308;28;20024;-79
2021/08/24 09:11:37;;;;;;;9.02;3.95;;;;;;;;;;4953168;28;20437;-80
2021/08/24 09:14:08;;;;;;;9.88;4.10;;;;;;;;;;4953426;28;20366;-79
2021/08/24 09:16:36;;;;;;;6.43;4.13;;;;;;;;;;4961856;28;20413;-79
2021/08/24 09:19:09;;;;;;;11.30;5.00;;;;;;;;;;4961549;28;20382;-79
2021/08/24 09:21:36;;;;;;;7.72;3.95;;;;;;;;;;4953151;28;20808;-79
2021/08/24 09:24:06;;;;;;;7.00;5.07;;;;;;;;;;4962350;28;20030;-79
2021/08/24 09:26:44;;;;;;;12.05;4.57;;;;;;;;;;4957705;28;20381;-79
2021/08/24 09:29:10;;;;;;;6.68;4.18;;;;;;;;;;4952877;28;20035;-79
2021/08/24 09:31:39;;;;;;;8.38;4.03;;;;;;;;;;4953494;28;20019;-80
2021/08/24 09:34:07;;;;;;;6.22;3.97;;;;;;;;;;4971437;28;20327;-80
2021/08/24 09:36:39;;;;;;;5.37;3.97;;;;;;;;;;4966223;28;20433;-80
2021/08/24 09:39:10;;;;;;;10.55;7.43;;;;;;;;;;4950214;28;20374;-81
2021/08/24 09:41:39;;;;;;;8.27;5.30;;;;;;;;;;4952639;28;20421;-79
2021/08/24 09:44:31;;;;;;;7.82;4.07;;;;;;;;;;4952225;28;20345;-81
2021/08/24 09:47:06;;;;;;;6.38;4.20;;;;;;;;;;4955995;28;20566;-80
2021/08/24 09:49:39;;;;;;;9.48;4.95;;;;;;;;;;4952504;28;20050;-80
2021/08/24 09:52:21;;;;;;;6.68;4.00;;;;;;;;;;4958818;28;20015;-79
2021/08/24 09:54:52;;;;;;;5.65;3.53;;;;;;;;;;4948189;28;20373;-80
2021/08/24 09:57:24;;;;;;;8.43;4.00;;;;;;;;;;4953896;28;20043;-80
2021/08/24 09:59:58;;;;;;;8.63;3.78;;;;;;;;;;4952789;28;20031;-80
2021/08/24 10:02:38;;;;;;;11.05;4.20;;;;;;;;;;4961964;28;20498;-80
2021/08/24 10:05:05;;;;;;;5.88;3.42;;;;;;;;;;4956287;28;20022;-80
2021/08/24 10:07:38;;;;;;;7.07;4.00;;;;;;;;;;4956252;28;20609;-79
2021/08/24 10:10:05;;;;;;;4.85;3.53;;;;;;;;;;4954819;28;20383;-82
2021/08/24 10:12:33;;;;;;;7.95;3.90;;;;;;;;;;4956321;28;20558;-87
2021/08/24 10:15:17;;;;;;;7.90;3.97;;;;;;;;;;4955269;28;20550;-87
2021/08/24 10:17:43;;;;;;;6.35;4.07;;;;;;;;;;4950776;28;20654;-85
2021/08/24 10:20:20;;;;;;;7.68;3.85;;;;;;;;;;4949892;28;20037;-86
2021/08/24 10:22:48;;;;;;;8.73;4.65;;;;;;;;;;4952078;28;20046;-85
2021/08/24 10:25:19;;;;;;;7.57;3.65;;;;;;;;;;4957445;28;20069;-85
2021/08/24 10:27:55;;;;;;;11.35;8.60;;;;;;;;;;4941498;28;20562;-85
2021/08/24 10:30:40;;;;;;;13.18;8.52;;;;;;;;;;4950666;28;20023;-86
2021/08/24 10:33:05;;;;;;;7.15;4.57;;;;;;;;;;4952244;28;20629;-85
2021/08/24 10:35:33;;;;;;;8.70;4.22;;;;;;;;;;4951818;28;20106;-86
2021/08/24 10:37:58;;;;;;;5.82;3.90;;;;;;;;;;4957671;28;20326;-85
2021/08/24 10:40:26;;;;;;;8.88;4.05;;;;;;;;;;4951525;28;20031;-86
2021/08/24 10:42:57;;;;;;;7.57;4.20;;;;;;;;;;4951205;28;20550;-85
2021/08/24 10:45:27;;;;;;;6.47;4.00;;;;;;;;;;4952162;28;20549;-85
2021/08/24 10:47:52;;;;;;;;;;;;;;;;;;4951456;28;20022;-85
2021/08/24 10:50:22;;;;;;;6.32;3.97;;;;;;;;;;4949083;29;19914;-85
2021/08/24 10:52:47;;;;;;;;;;;;;;;;;;4951031;28;20370;-86
2021/08/24 10:55:14;;;;;;;5.57;3.43;;;;;;;;;;4951289;29;19913;-85
2021/08/24 10:57:51;;;;;;;6.65;3.90;;;;;;;;;;4950583;29;20614;-86
2021/08/24 11:00:23;;;;;;;5.78;4.22;;;;;;;;;;4950245;29;20046;-86
2021/08/24 11:03:07;;;;;;;8.35;4.25;;;;;;;;;;4951575;29;20101;-86
2021/08/24 11:05:50;;;;;;;7.93;4.40;;;;;;;;;;4951588;28;20481;-86
2021/08/24 11:08:16;;;;;;;6.13;3.97;;;;;;;;;;4950328;28;20433;-85
2021/08/24 11:10:54;;;;;;;8.40;4.00;;;;;;;;;;4949704;29;20027;-85
2021/08/24 11:13:38;;;;;;;6.10;4.25;;;;;;;;;;4947701;29;20524;-85
2021/08/24 11:16:18;;;;;;;5.68;4.00;;;;;;;;;;4953126;28;20369;-84
2021/08/24 11:18:43;;;;;;;;;;;;;;;;;;4955503;28;20366;-84
2021/08/24 11:21:29;;;;;;;5.78;3.83;;;;;;;;;;4955130;29;19921;-83
2021/08/24 11:24:16;;;;;;;6.18;3.72;;;;;;;;;;4952235;29;20370;-83
2021/08/24 11:26:46;;;;;;;5.25;3.78;;;;;;;;;;4984687;28;21327;-83
2021/08/24 11:29:14;;;;;;;6.00;3.65;;;;;;;;;;4954764;28;20351;-84
2021/08/24 11:31:46;;;;;;;5.82;3.80;;;;;;;;;;4954133;29;20471;-83
2021/08/24 11:34:22;;;;;;;6.15;3.67;;;;;;;;;;4954391;28;20569;-81
2021/08/24 11:36:52;;;;;;;6.53;3.83;;;;;;;;;;4952880;28;20652;-83
2021/08/24 11:39:24;;;;;;;6.82;4.05;;;;;;;;;;4949211;28;20382;-84
2021/08/24 11:41:50;;;;;;;5.18;4.22;;;;;;;;;;4961880;28;20754;-83
2021/08/24 11:44:29;;;;;;;6.88;4.05;;;;;;;;;;4995766;28;20105;-84
2021/08/24 11:46:57;;;;;;;7.55;3.92;;;;;;;;;;4954447;28;20141;-83
2021/08/24 11:49:28;;;;;;;6.38;3.60;;;;;;;;;;4957903;28;20078;-84
2021/08/24 11:52:02;;;;;;;4.40;3.63;;;;;;;;;;4953688;28;20265;-83
2021/08/24 11:54:39;;;;;;;5.75;3.63;;;;;;;;;;4957887;28;20511;-83
2021/08/24 11:57:09;;;;;;;7.38;3.80;;;;;;;;;;4955821;28;20050;-83
2021/08/24 11:59:48;;;;;;;6.10;3.38;;;;;;;;;;4954722;28;20070;-84
2021/08/24 12:02:15;;;;;;;6.95;3.72;;;;;;;;;;4963647;28;20058;-84
2021/08/24 12:04:41;;;;;;;5.30;3.60;;;;;;;;;;4957891;28;20430;-84
2021/08/24 12:07:09;;;;;;;7.40;3.65;;;;;;;;;;4954258;28;20380;-83
2021/08/24 12:09:34;;;;;;;5.45;3.55;;;;;;;;;;4953700;28;20422;-83
2021/08/24 12:12:00;;;;;;;4.53;3.40;;;;;;;;;;4966347;28;20062;-82
2021/08/24 12:14:27;;;;;;;8.18;4.07;;;;;;;;;;4954102;28;20278;-83
2021/08/24 12:16:55;;;;;;;5.63;4.00;;;;;;;;;;4988195;28;20437;-82
2021/08/24 12:19:21;;;;;;;4.45;3.45;;;;;;;;;;4953384;28;20062;-82
2021/08/24 12:21:57;;;;;;;5.53;3.42;;;;;;;;;;4953557;28;20429;-82
2021/08/24 12:24:23;;;;;;;6.95;3.80;;;;;;;;;;4957982;28;20106;-83
2021/08/24 12:26:49;;;;;;;5.37;3.50;;;;;;;;;;4955431;28;20126;-82
2021/08/24 12:29:36;;;;;;;7.28;4.15;;;;;;;;;;4954261;28;22036;-82
2021/08/24 12:32:02;;;;;;;6.70;3.78;;;;;;;;;;4959559;28;20434;-84
2021/08/24 12:34:30;;;;;;;7.47;4.80;;;;;;;;;;4966544;28;20027;-82
2021/08/24 12:36:56;;;;;;;5.68;3.90;;;;;;;;;;4950921;28;20226;-83
2021/08/24 12:39:34;;;;;;;8.43;3.83;;;;;;;;;;4956808;28;20763;-83
2021/08/24 12:42:08;;;;;;;6.15;3.97;;;;;;;;;;4960397;28;20660;-84
2021/08/24 12:44:44;;;;;;;6.93;4.22;;;;;;;;;;4968467;28;20673;-83
2021/08/24 12:47:21;;;;;;;7.25;4.15;;;;;;;;;;4952006;29;20122;-83
2021/08/24 12:49:47;;;;;;;18.38;13.20;;;;;;;;;;4948274;29;20495;-83
2021/08/24 12:52:15;;;;;;;11.75;8.30;;;;;;;;;;4953704;29;20051;-83
2021/08/24 12:54:51;;;;;;;7.80;4.50;;;;;;;;;;4950981;28;20411;-82
2021/08/24 12:57:29;;;;;;;5.97;4.03;;;;;;;;;;4952747;29;20779;-82
2021/08/24 12:59:54;;;;;;;9.43;4.43;;;;;;;;;;4984227;28;20359;-83
2021/08/24 13:02:29;;;;;;;5.63;3.80;;;;;;;;;;4953192;28;20393;-84
2021/08/24 13:04:56;;;;;;;6.07;4.00;;;;;;;;;;4953311;28;20685;-85
2021/08/24 13:07:31;;;;;;;8.95;3.95;;;;;;;;;;4950808;28;20027;-84
2021/08/24 13:10:05;;;;;;;7.90;4.20;;;;;;;;;;4952951;28;20381;-80
2021/08/24 13:12:33;;;;;;;7.55;4.95;;;;;;;;;;4952962;28;20444;-83
2021/08/24 13:14:59;;;;;;;11.63;8.68;;;;;;;;;;4951654;29;20553;-84
2021/08/24 13:17:30;;;;;;;7.80;5.00;;;;;;;;;;4951974;29;20038;-83
2021/08/24 13:20:11;;;;;;;;;;;;;;;;;;;;;
2021/08/24 13:22:56;;;;;;;6.25;4.13;;;;;;;;;;4952178;28;20027;-83
2021/08/24 13:25:24;;;;;;;4.75;3.47;;;;;;;;;;4953248;29;20381;-83
2021/08/24 13:27:52;;;;;;;7.20;4.43;;;;;;;;;;4952560;29;20019;-83
2021/08/24 13:30:24;;;;;;;7.60;4.72;;;;;;;;;;4952824;28;20424;-83
2021/08/24 13:32:50;;;;;;;6.93;4.22;;;;;;;;;;4952408;29;20058;-83
2021/08/24 13:35:20;;;;;;;7.10;4.30;;;;;;;;;;4952630;28;20289;-83
2021/08/24 13:37:48;;;;;;;6.78;4.28;;;;;;;;;;4947275;28;20367;-83
2021/08/24 13:40:34;;;;;;;7.13;3.92;;;;;;;;;;4952769;28;20171;-83
2021/08/24 13:42:59;;;;;;;6.75;4.30;;;;;;;;;;4963255;28;20458;-83
2021/08/24 13:45:26;;;;;;;6.97;4.32;;;;;;;;;;4954854;28;20078;-83
2021/08/24 13:47:56;;;;;;;7.18;4.43;;;;;;;;;;4943021;28;20031;-83
2021/08/24 13:50:28;;;;;;;6.32;4.07;;;;;;;;;;4953815;28;20070;-84
2021/08/24 13:52:58;;;;;;;4.70;3.60;;;;;;;;;;4951577;28;20024;-84
2021/08/24 13:55:41;;;;;;;5.13;3.78;;;;;;;;;;4953713;28;20045;-84
2021/08/24 13:58:29;;;;;;;6.53;3.95;;;;;;;;;;4954170;28;20062;-84
2021/08/24 14:00:57;;;;;;;5.90;4.10;;;;;;;;;;4952863;28;20125;-85
2021/08/24 14:03:22;;;;;;;9.13;4.03;;;;;;;;;;4952603;28;20019;-83
2021/08/24 14:05:58;;;;;;;4.97;3.42;;;;;;;;;;4953457;28;20934;-84
2021/08/24 14:08:25;;;;;;;5.47;3.58;;;;;;;;;;4957273;28;20386;-84
2021/08/24 14:10:53;;;;;;;6.05;3.83;;;;;;;;;;4967315;28;20030;-84
2021/08/24 14:13:19;;;;;;;7.03;4.18;;;;;;;;;;4959701;28;20362;-83
2021/08/24 14:15:47;;;;;;;4.50;3.70;;;;;;;;;;4952434;28;20019;-83
2021/08/24 14:18:19;;;;;;;5.25;4.03;;;;;;;;;;4935526;29;20462;-84
2021/08/24 14:20:55;;;;;;;5.43;3.40;;;;;;;;;;4956407;28;20363;-84
2021/08/24 14:23:22;;;;;;;9.43;5.03;;;;;;;;;;4960898;28;20386;-84
2021/08/24 14:25:49;;;;;;;6.90;5.57;;;;;;;;;;4958821;28;20393;-82
2021/08/24 14:28:35;;;;;;;5.97;4.43;;;;;;;;;;4952042;28;20023;-83
2021/08/24 14:31:01;;;;;;;6.20;4.22;;;;;;;;;;4956832;28;20645;-82
2021/08/24 14:33:34;;;;;;;5.20;3.47;;;;;;;;;;4970689;28;20029;-81
2021/08/24 14:36:07;;;;;;;5.07;3.90;;;;;;;;;;4963183;28;20105;-81
2021/08/24 14:38:37;;;;;;;7.60;4.22;;;;;;;;;;4942266;28;20024;-82
2021/08/24 14:41:26;;;;;;;6.68;4.28;;;;;;;;;;4950833;28;20102;-81
2021/08/24 14:43:59;;;;;;;6.83;4.20;;;;;;;;;;4946263;28;20097;-84
2021/08/24 14:46:26;;;;;;;6.60;4.13;;;;;;;;;;4951351;28;20285;-83
2021/08/24 14:48:53;;;;;;;6.28;4.00;;;;;;;;;;4951940;28;20419;-83
2021/08/24 14:51:19;;;;;;;6.82;4.93;;;;;;;;;;4965814;28;20698;-81
2021/08/24 14:53:48;;;;;;;6.90;4.28;;;;;;;;;;4971175;28;20029;-83